createdAt,value
2022-09-01T00:00:06.486Z,79.39
2022-09-01T00:05:38.431Z,79.05
2022-09-01T00:11:10.438Z,79.15
2022-09-01T00:16:42.261Z,79.42
2022-09-01T00:22:13.978Z,79.36
2022-09-01T00:27:45.962Z,79.38
2022-09-01T00:33:17.562Z,79.50
2022-09-01T00:38:49.152Z,79.35
2022-09-01T00:49:50.426Z,79.37
2022-09-01T00:55:22.009Z,79.36
2022-09-01T01:00:53.571Z,79.50
2022-09-01T01:08:46.982Z,79.58
2022-09-01T01:14:19.050Z,79.69
2022-09-01T01:19:50.907Z,79.75
2022-09-01T01:25:22.596Z,79.80
2022-09-01T01:30:54.216Z,79.97
2022-09-01T01:36:26.075Z,79.86
2022-09-01T01:41:58.024Z,79.72
2022-09-01T01:47:29.718Z,79.59
2022-09-01T01:53:01.683Z,79.48
2022-09-01T01:58:33.972Z,79.57
2022-09-01T02:04:05.812Z,79.42
2022-09-01T02:09:37.993Z,79.40
2022-09-01T02:15:10.073Z,79.29
2022-09-01T02:20:42.019Z,79.27
2022-09-01T02:26:16.661Z,79.16
2022-09-01T02:31:45.559Z,79.22
2022-09-01T02:37:17.441Z,79.15
2022-09-01T02:42:49.368Z,79.18
2022-09-01T02:48:21.363Z,79.15
2022-09-01T02:53:53.237Z,79.16
2022-09-01T02:59:24.746Z,79.12
2022-09-01T03:04:56.524Z,79.13
2022-09-01T03:10:28.522Z,79.12
2022-09-01T03:16:00.532Z,79.03
2022-09-01T03:21:32.633Z,79.01
2022-09-01T03:27:04.517Z,79.10
2022-09-01T03:32:36.394Z,79.18
2022-09-01T03:38:08.063Z,79.25
2022-09-01T03:43:47.310Z,79.29
2022-09-01T03:49:12.500Z,79.21
2022-09-01T03:54:44.635Z,79.22
2022-09-01T04:00:16.342Z,79.44
2022-09-01T04:05:47.905Z,79.56
2022-09-01T04:11:19.776Z,79.50
2022-09-01T04:16:52.054Z,79.58
2022-09-01T04:22:24.013Z,79.64
2022-09-01T04:27:56.221Z,79.68
2022-09-01T04:33:33.442Z,79.61
2022-09-01T04:39:05.469Z,79.60
2022-09-01T04:44:37.172Z,79.72
2022-09-01T04:50:09.017Z,79.75
2022-09-01T04:55:40.543Z,79.79
2022-09-01T05:01:12.566Z,79.76
2022-09-01T05:17:45.817Z,79.82
2022-09-01T05:23:17.649Z,79.83
2022-09-01T05:28:49.634Z,79.50
2022-09-01T05:34:21.600Z,79.41
2022-09-01T05:39:53.094Z,79.08
2022-09-01T05:45:24.853Z,78.81
2022-09-01T05:50:56.787Z,76.18
2022-09-01T05:56:28.636Z,75.31
2022-09-01T06:02:00.230Z,74.49
2022-09-01T06:07:31.953Z,73.71
2022-09-01T06:13:04.142Z,73.79
2022-09-01T06:18:36.519Z,73.88
2022-09-01T06:24:08.389Z,73.52
2022-09-01T06:29:40.251Z,73.25
2022-09-01T06:35:12.430Z,72.61
2022-09-01T06:40:44.409Z,72.06
2022-09-01T06:46:16.483Z,70.30
2022-09-01T06:51:48.355Z,69.65
2022-09-01T07:02:52.120Z,69.04
2022-09-01T07:08:23.771Z,69.74
2022-09-01T07:19:48.440Z,69.85
2022-09-01T07:25:11.916Z,70.03
2022-09-01T07:30:31.165Z,69.72
2022-09-01T07:47:52.440Z,67.22
2022-09-01T07:52:38.921Z,67.13
2022-09-01T07:58:10.727Z,67.51
2022-09-01T08:03:42.815Z,67.67
2022-09-01T08:14:46.416Z,67.04
2022-09-01T08:20:18.421Z,66.49
2022-09-01T08:25:50.720Z,65.67
2022-09-01T08:31:22.036Z,65.67
2022-09-01T08:36:54.029Z,64.35
2022-09-01T08:42:26.240Z,62.92
2022-09-01T08:53:32.739Z,60.83
2022-09-01T08:59:03.667Z,58.99
2022-09-01T09:04:35.395Z,59.04
2022-09-01T09:10:09.168Z,59.70
2022-09-01T09:15:40.976Z,56.39
2022-09-01T09:21:12.711Z,57.12
2022-09-01T09:26:44.818Z,55.60
2022-09-01T09:32:35.176Z,54.91
2022-09-01T09:37:50.566Z,54.43
2022-09-01T09:43:22.498Z,54.31
2022-09-01T09:48:54.721Z,53.74
2022-09-01T09:54:26.941Z,53.44
2022-09-01T10:00:00.982Z,55.43
2022-09-01T10:05:31.035Z,55.39
2022-09-01T10:11:02.936Z,56.37
2022-09-01T10:16:34.805Z,56.64
2022-09-01T10:22:06.451Z,55.17
2022-09-01T10:27:38.480Z,53.80
2022-09-01T10:33:19.634Z,53.10
2022-09-01T10:38:50.455Z,52.44
2022-09-01T10:44:15.767Z,52.00
2022-09-01T10:49:47.402Z,52.05
2022-09-01T10:55:24.495Z,51.14
2022-09-01T11:06:24.031Z,49.93
2022-09-01T11:11:55.990Z,49.80
2022-09-01T11:17:28.415Z,49.54
2022-09-01T11:28:29.747Z,48.23
2022-09-01T11:34:01.582Z,48.11
2022-09-01T11:39:33.519Z,48.13
2022-09-01T11:45:05.083Z,47.33
2022-09-01T11:50:37.377Z,46.92
2022-09-01T11:56:09.552Z,45.71
2022-09-01T12:01:41.023Z,45.87
2022-09-01T12:07:13.284Z,44.98
2022-09-01T12:12:45.412Z,45.09
2022-09-01T12:18:17.065Z,45.47
2022-09-01T12:23:49.203Z,46.79
2022-09-01T12:29:21.267Z,46.98
2022-09-01T12:34:53.260Z,47.54
2022-09-01T12:40:25.558Z,48.00
2022-09-01T12:45:57.751Z,46.82
2022-09-01T12:51:31.637Z,46.69
2022-09-01T12:57:01.534Z,44.30
2022-09-01T13:02:33.655Z,43.65
2022-09-01T13:08:06.022Z,45.15
2022-09-01T13:13:37.815Z,45.53
2022-09-01T13:19:11.203Z,47.03
2022-09-01T13:24:41.888Z,47.08
2022-09-01T13:30:14.260Z,47.19
2022-09-01T13:35:46.296Z,46.34
2022-09-01T13:41:18.127Z,46.41
2022-09-01T13:52:21.727Z,47.37
2022-09-01T13:57:55.861Z,47.88
2022-09-01T14:03:25.540Z,48.04
2022-09-01T14:08:57.652Z,47.74
2022-09-01T14:15:10.714Z,46.41
2022-09-01T14:20:01.814Z,46.59
2022-09-01T14:22:14.427Z,47.28
2022-09-01T14:27:46.308Z,47.04
2022-09-01T14:33:17.581Z,47.13
2022-09-01T14:38:49.347Z,47.17
2022-09-01T14:44:21.103Z,47.16
2022-09-01T14:49:52.524Z,47.04
2022-09-01T14:55:24.415Z,46.74
2022-09-01T15:01:00.390Z,45.72
2022-09-01T15:06:27.943Z,44.86
2022-09-01T15:11:59.614Z,42.90
2022-09-01T15:17:31.516Z,42.89
2022-09-01T15:23:03.449Z,42.67
2022-09-01T15:28:35.058Z,43.22
2022-09-01T15:34:06.987Z,43.20
2022-09-01T15:39:38.784Z,43.94
2022-09-01T15:45:10.497Z,44.67
2022-09-01T15:50:42.020Z,44.65
2022-09-01T15:56:13.507Z,42.74
2022-09-01T16:01:45.601Z,44.11
2022-09-01T16:07:17.386Z,44.06
2022-09-01T16:12:49.107Z,44.10
2022-09-01T16:18:20.847Z,44.00
2022-09-01T16:23:52.397Z,44.29
2022-09-01T16:29:24.323Z,44.70
2022-09-01T16:34:56.139Z,45.58
2022-09-01T16:40:27.847Z,45.42
2022-09-01T16:46:00.676Z,45.91
2022-09-01T16:51:32.446Z,46.22
2022-09-01T16:57:04.207Z,46.98
2022-09-01T17:02:36.114Z,47.00
2022-09-01T17:13:39.615Z,47.75
2022-09-01T17:19:11.334Z,48.48
2022-09-01T17:24:43.199Z,48.59
2022-09-01T17:30:14.836Z,48.69
2022-09-01T17:35:46.463Z,49.22
2022-09-01T17:41:17.660Z,49.51
2022-09-01T17:46:49.130Z,50.16
2022-09-01T17:52:20.198Z,50.40
2022-09-01T17:57:51.584Z,51.11
2022-09-01T18:03:22.917Z,51.38
2022-09-01T18:14:25.730Z,52.11
2022-09-01T18:19:57.468Z,52.52
2022-09-01T18:25:29.083Z,52.98
2022-09-01T18:31:00.459Z,53.63
2022-09-01T18:36:32.033Z,53.88
2022-09-01T18:42:03.596Z,54.15
2022-09-01T18:47:37.028Z,54.41
2022-09-01T18:53:08.456Z,54.88
2022-09-01T18:58:39.795Z,55.01
2022-09-01T19:04:11.062Z,55.63
2022-09-01T19:09:42.428Z,55.64
2022-09-01T19:20:45.296Z,56.44
2022-09-01T19:26:16.992Z,57.04
2022-09-01T19:31:48.277Z,57.27
2022-09-01T19:37:19.645Z,57.52
2022-09-01T19:42:51.002Z,57.70
2022-09-01T19:48:22.422Z,58.32
2022-09-01T19:53:54.024Z,58.44
2022-09-01T19:59:25.459Z,58.92
2022-09-01T20:04:57.360Z,58.98
2022-09-01T20:10:28.873Z,59.02
2022-09-01T20:16:00.766Z,59.15
2022-09-01T20:27:04.206Z,59.43
2022-09-01T20:32:35.581Z,59.69
2022-09-01T20:38:09.185Z,59.79
2022-09-01T20:43:40.880Z,60.05
2022-09-01T20:49:12.155Z,60.11
2022-09-01T20:54:43.549Z,61.20
2022-09-01T21:00:14.876Z,61.53
2022-09-01T21:05:46.582Z,61.15
2022-09-01T21:11:17.878Z,61.51
2022-09-01T21:16:49.119Z,61.95
2022-09-01T21:22:22.395Z,61.90
2022-09-01T21:27:52.198Z,62.18
2022-09-01T21:33:23.670Z,62.50
2022-09-01T21:38:55.285Z,62.97
2022-09-01T21:44:26.641Z,63.20
2022-09-01T21:49:58.480Z,63.33
2022-09-01T21:55:30.167Z,64.03
2022-09-01T22:01:01.783Z,63.93
2022-09-01T22:06:33.714Z,64.28
2022-09-01T22:12:05.453Z,64.24
2022-09-01T22:17:37.274Z,65.22
2022-09-01T22:23:09.131Z,65.49
2022-09-01T22:28:40.496Z,65.38
2022-09-01T22:34:12.072Z,66.11
2022-09-01T22:39:43.762Z,66.34
2022-09-01T22:45:15.855Z,66.80
2022-09-01T22:50:49.322Z,66.78
2022-09-01T22:56:21.264Z,66.74
2022-09-01T23:01:53.211Z,67.22
2022-09-01T23:07:25.042Z,67.14
2022-09-01T23:12:56.736Z,67.88
2022-09-01T23:18:28.403Z,67.54
2022-09-01T23:24:00.180Z,67.88
2022-09-01T23:29:31.942Z,68.05
2022-09-01T23:35:03.881Z,68.07
2022-09-01T23:40:35.606Z,67.80
2022-09-01T23:46:07.523Z,68.07
2022-09-01T23:51:39.358Z,68.20
2022-09-01T23:57:11.162Z,68.21
